Time;durP1;ratioP1;P1;durP2;ratioP2;P2;SDS_P1;SDS_P2;PMS_P1;PMS_P2;Temp;Humidity;BMP_temperature;BMP_pressure;BME280_temperature;BME280_humidity;BME280_pressure;Samples;Min_cycle;Max_cycle;Signal;HPM_P1;HPM_P2
2022/12/24 18:18:46;;;;;;;;;;;11.10;99.90;;;;;;2616853;54;19946;-66
2022/12/24 18:21:16;;;;;;;;;;;11.00;99.90;;;;;;2617140;47;19953;-70
2022/12/24 18:23:46;;;;;;;;;;;11.00;99.90;;;;;;2616086;47;20434;-67
2022/12/24 18:26:16;;;;;;;;;;;11.00;99.90;;;;;;2617087;39;20373;-69
2022/12/24 18:28:46;;;;;;;;;;;11.00;99.90;;;;;;2617245;39;20694;-68
2022/12/24 18:31:17;;;;;;;;;;;10.90;99.90;;;;;;2616008;54;20726;-68
2022/12/24 18:33:51;;;;;;;;;;;10.90;99.90;;;;;;2618253;47;19947;-68
2022/12/24 18:36:21;;;;;;;;;;;10.90;99.90;;;;;;2618300;47;19947;-69
2022/12/24 18:38:51;;;;;;;;;;;10.90;99.90;;;;;;2618870;54;19969;-69
2022/12/24 18:41:21;;;;;;;;;;;10.90;99.90;;;;;;2619269;54;19957;-68
2022/12/24 18:43:50;;;;;;;;;;;10.80;99.90;;;;;;2618462;39;20171;-75
2022/12/24 18:46:21;;;;;;;;;;;10.80;99.90;;;;;;2621240;54;19976;-68
2022/12/24 18:48:53;;;;;;;;;;;10.80;99.90;;;;;;2618239;54;19953;-67
2022/12/24 18:51:23;;;;;;;;;;;10.80;99.90;;;;;;2625923;47;19949;-67
2022/12/24 18:53:53;;;;;;;;;;;10.90;99.90;;;;;;2628849;54;19950;-67
2022/12/24 18:56:24;;;;;;;;;;;10.70;99.90;;;;;;2627260;48;19998;-67
2022/12/24 18:58:54;;;;;;;;;;;10.70;99.90;;;;;;2627142;47;19939;-67
2022/12/24 19:01:25;;;;;;;;;;;10.70;99.90;;;;;;2626878;47;19951;-68
2022/12/24 19:03:57;;;;;;;;;;;10.70;99.90;;;;;;2622657;52;19953;-68
2022/12/24 19:06:27;;;;;;;;;;;10.70;99.90;;;;;;2617243;54;19954;-66
2022/12/24 19:08:56;;;;;;;;;;;10.70;99.90;;;;;;2618662;54;19946;-67
2022/12/24 19:11:30;;;;;;;;;;;10.70;99.90;;;;;;2622002;47;19946;-68
2022/12/24 19:14:00;;;;;;;;;;;10.60;99.90;;;;;;2620930;54;19954;-69
2022/12/24 19:16:30;;;;;;;;;;;10.70;99.90;;;;;;2619489;51;19946;-67
2022/12/24 19:19:02;;;;;;;;;;;10.60;99.90;;;;;;2622001;47;19953;-69
2022/12/24 19:21:32;;;;;;;;;;;10.60;99.90;;;;;;2619019;54;19950;-70
2022/12/24 19:24:01;;;;;;;;;;;10.60;99.90;;;;;;2616429;54;19947;-70
2022/12/24 19:26:31;;;;;;;;;;;10.60;99.90;;;;;;2618343;54;19950;-68
2022/12/24 19:29:00;;;;;;;;;;;10.50;99.90;;;;;;2616925;54;19950;-68
2022/12/24 19:31:31;;;;;;;;;;;10.50;99.90;;;;;;2616879;51;19953;-68
2022/12/24 19:34:03;;;;;;;;;;;10.50;99.90;;;;;;2616222;54;19951;-68
2022/12/24 19:36:33;;;;;;;;;;;10.50;99.90;;;;;;2614554;54;19939;-67
2022/12/24 19:39:03;;;;;;;;;;;10.50;99.90;;;;;;2617237;47;19973;-68
2022/12/24 19:41:33;;;;;;;;;;;10.50;99.90;;;;;;2616750;47;19951;-67
2022/12/24 20:29:11;;;;;;;;;;;10.50;99.90;;;;;;2608770;54;20037;-67
2022/12/24 20:31:41;;;;;;;;;;;10.20;99.90;;;;;;2614101;47;19994;-68
2022/12/24 20:34:12;;;;;;;;;;;10.20;99.90;;;;;;2615564;31;20448;-70
2022/12/24 20:36:42;;;;;;;;;;;10.20;99.90;;;;;;2616990;47;19958;-68
2022/12/24 20:39:12;;;;;;;;;;;10.20;99.90;;;;;;2616673;54;19954;-72
2022/12/24 20:41:42;;;;;;;;;;;10.20;99.90;;;;;;2620676;54;19950;-76
2022/12/24 20:44:14;;;;;;;;;;;10.20;99.90;;;;;;2624996;54;19955;-69
2022/12/24 20:46:51;;;;;;;;;;;10.20;99.90;;;;;;2625748;54;19951;-67
2022/12/24 20:49:20;;;;;;;;;;;10.20;99.90;;;;;;2621032;54;19957;-68
2022/12/24 20:51:50;;;;;;;;;;;10.20;99.90;;;;;;2623828;54;19954;-69
2022/12/24 20:54:20;;;;;;;;;;;10.20;99.90;;;;;;2623289;54;19950;-70
2022/12/24 20:56:49;;;;;;;;;;;10.10;99.90;;;;;;2616723;54;19950;-69
2022/12/24 20:59:35;;;;;;;;;;;10.10;99.90;;;;;;2618274;47;19946;-70
2022/12/24 21:02:15;;;;;;;;;;;10.10;99.90;;;;;;2620286;54;19957;-70
2022/12/24 21:04:49;;;;;;;;;;;10.10;99.90;;;;;;2618337;47;19965;-70
2022/12/24 21:07:26;;;;;;;;;;;10.10;99.90;;;;;;2617829;47;20737;-70
2022/12/24 21:09:57;;;;;;;;;;;10.10;99.90;;;;;;2616793;47;19954;-69
2022/12/24 21:15:22;;;;;;;;;;;10.40;99.90;;;;;;2617866;47;19977;-69
2022/12/24 21:17:53;;;;;;;;;;;10.10;99.90;;;;;;2619351;54;19946;-69
2022/12/24 21:20:28;;;;;;;;;;;10.10;99.90;;;;;;2620446;54;19950;-69
2022/12/24 21:22:58;;;;;;;;;;;10.10;99.90;;;;;;2624676;54;19946;-68
2022/12/24 21:25:30;;;;;;;;;;;10.10;99.90;;;;;;2625408;47;19942;-70
2022/12/24 21:27:59;;;;;;;;;;;10.10;99.90;;;;;;2624011;39;20710;-69
2022/12/24 21:30:31;;;;;;;;;;;10.10;99.90;;;;;;2623761;54;19946;-68
2022/12/24 21:33:01;;;;;;;;;;;10.10;99.90;;;;;;2619935;39;20395;-69
2022/12/24 21:35:30;;;;;;;;;;;10.00;99.90;;;;;;2619001;39;21094;-69
2022/12/24 21:38:00;;;;;;;;;;;10.10;99.90;;;;;;2617319;54;19946;-70
2022/12/24 21:40:29;;;;;;;;;;;10.00;99.90;;;;;;2617276;54;19953;-70
2022/12/24 21:42:59;;;;;;;;;;;10.10;99.90;;;;;;2617453;54;19950;-69
2022/12/24 21:45:32;;;;;;;;;;;10.10;99.90;;;;;;2616649;47;19957;-68
2022/12/24 21:50:53;;;;;;;;;;;10.10;99.90;;;;;;2618250;47;20070;-68
2022/12/24 21:50:55;;;;;;;;;;;10.10;99.90;;;;;;2617960;54;19946;-68
2022/12/24 21:56:09;;;;;;;;;;;10.10;99.90;;;;;;2620036;54;19953;-68
2022/12/24 21:58:39;;;;;;;;;;;10.10;99.90;;;;;;2619973;46;19951;-72
2022/12/24 22:01:12;;;;;;;;;;;10.10;99.90;;;;;;2620669;54;19954;-68
2022/12/24 22:03:42;;;;;;;;;;;10.10;99.90;;;;;;2620438;54;19951;-69
2022/12/24 22:11:46;;;;;;;;;;;10.10;99.90;;;;;;2619058;54;19952;-67
2022/12/24 22:11:51;;;;;;;;;;;10.10;99.90;;;;;;2618672;39;20498;-68
2022/12/24 22:14:23;;;;;;;;;;;10.10;99.90;;;;;;2617566;39;20787;-68
2022/12/24 22:16:55;;;;;;;;;;;10.10;99.90;;;;;;2618174;47;19954;-68
2022/12/24 22:19:25;;;;;;;;;;;10.10;99.90;;;;;;2616633;54;20259;-68
2022/12/24 22:21:54;;;;;;;;;;;10.10;99.90;;;;;;2619621;54;19994;-71
2022/12/24 22:24:24;;;;;;;;;;;10.10;99.90;;;;;;2621054;54;19946;-68
2022/12/24 22:26:54;;;;;;;;;;;10.00;99.90;;;;;;2619974;47;19998;-69
2022/12/24 22:29:23;;;;;;;;;;;10.00;99.90;;;;;;2621607;54;19946;-69
2022/12/24 22:31:56;;;;;;;;;;;10.00;99.90;;;;;;2619669;47;19957;-69
2022/12/24 22:34:26;;;;;;;;;;;10.00;99.90;;;;;;2616566;54;19958;-68
2022/12/24 22:36:55;;;;;;;;;;;10.00;99.90;;;;;;2618002;54;20561;-69
2022/12/24 22:39:25;;;;;;;;;;;9.90;99.90;;;;;;2619953;54;19959;-68
2022/12/24 22:41:56;;;;;;;;;;;9.90;99.90;;;;;;2619777;47;20422;-69
2022/12/24 22:44:27;;;;;;;;;;;10.10;99.90;;;;;;2618958;54;19934;-68
2022/12/24 22:47:01;;;;;;;;;;;9.90;99.90;;;;;;2624116;46;19975;-70
2022/12/24 22:49:32;;;;;;;;;;;9.90;99.90;;;;;;2619116;46;19997;-69
2022/12/24 22:52:02;;;;;;;;;;;9.90;99.90;;;;;;2616936;54;19957;-69
2022/12/24 22:54:31;;;;;;;;;;;9.90;99.90;;;;;;2615282;54;19954;-71
2022/12/24 22:57:01;;;;;;;;;;;9.90;99.90;;;;;;2618652;54;19942;-71
2022/12/24 22:59:31;;;;;;;;;;;9.90;99.90;;;;;;2622268;54;19962;-72
2022/12/24 23:02:04;;;;;;;;;;;9.90;99.90;;;;;;2623517;54;19954;-71
2022/12/24 23:04:35;;;;;;;;;;;9.90;99.90;;;;;;2616745;47;19951;-72
2022/12/24 23:07:05;;;;;;;;;;;9.90;99.90;;;;;;2615066;46;20005;-70
2022/12/24 23:09:35;;;;;;;;;;;9.90;99.90;;;;;;2616524;39;20362;-70
2022/12/24 23:12:05;;;;;;;;;;;9.90;99.90;;;;;;2618597;54;19946;-70
2022/12/24 23:17:20;;;;;;;;;;;10.00;99.90;;;;;;2619043;54;19951;-69
2022/12/24 23:19:49;;;;;;;;;;;10.00;99.90;;;;;;2618653;54;20498;-71
2022/12/24 23:22:19;;;;;;;;;;;10.00;99.90;;;;;;2619043;54;19958;-70
2022/12/24 23:24:48;;;;;;;;;;;10.00;99.90;;;;;;2618258;54;19970;-71
2022/12/24 23:27:18;;;;;;;;;;;10.00;99.90;;;;;;2617878;54;19947;-70
2022/12/24 23:29:47;;;;;;;;;;;10.00;99.90;;;;;;2617516;54;19963;-71
2022/12/24 23:32:19;;;;;;;;;;;9.90;99.90;;;;;;2618180;47;19955;-70
2022/12/24 23:34:49;;;;;;;;;;;10.00;99.90;;;;;;2617926;54;19947;-71
2022/12/24 23:37:18;;;;;;;;;;;10.00;99.90;;;;;;2617923;54;19965;-70
2022/12/24 23:39:48;;;;;;;;;;;10.00;99.90;;;;;;2619643;54;19965;-71
2022/12/24 23:42:17;;;;;;;;;;;10.00;99.90;;;;;;2627034;54;19996;-69
2022/12/24 23:44:47;;;;;;;;;;;10.00;99.90;;;;;;2624569;46;19947;-69
2022/12/24 23:47:16;;;;;;;;;;;10.00;99.90;;;;;;2619144;54;19953;-70
2022/12/24 23:49:49;;;;;;;;;;;10.00;99.90;;;;;;2619675;47;19950;-70
2022/12/24 23:52:18;;;;;;;;;;;10.10;99.90;;;;;;2618569;47;19950;-69
2022/12/24 23:54:48;;;;;;;;;;;10.00;99.90;;;;;;2617840;47;19942;-70
2022/12/24 23:57:17;;;;;;;;;;;10.00;99.90;;;;;;2618778;54;19973;-70
2022/12/24 23:59:47;;;;;;;;;;;10.00;99.90;;;;;;2618405;54;20003;-69
